EZY774 EKCH-EGKK
Flight info
| Callsign | EZY774 |
|---|---|
| Flight time | 1h 38m |
| Altitude | 38000 |
| Route | LANGO DCT POGUG DCT RAXLU DCT EEL DCT GALSO Q63 ARREK Y4 TEBRA |
| Aircraft | A20N/M-SDE2E3FGHIRWXY/LB1 |
Departure
| Time | 2026-04-24 13:48 |
|---|---|
| Airport | Copenhagen Kastrup Airport (EKCH) |
Arrival
| Time | 2026-04-24 15:26 |
|---|---|
| Airport | London Gatwick Airport (EGKK) |
| Time | Latitude | Longitude | Altitude | Speed | Heading |
|---|---|---|---|---|---|
| 2026-04-24 13:24 | 55.62737 | 12.64274 | 21 ft | 0 kts | 298° |
| 2026-04-24 13:35 | 55.62736 | 12.64279 | 21 ft | 2 kts | 297° |
| 2026-04-24 13:35 | 55.62730 | 12.64307 | 22 ft | 2 kts | 276° |
| 2026-04-24 13:35 | 55.62731 | 12.64336 | 24 ft | 2 kts | 250° |
| 2026-04-24 13:36 | 55.62739 | 12.64361 | 23 ft | 2 kts | 225° |
| 2026-04-24 13:36 | 55.62745 | 12.64372 | 22 ft | 0 kts | 215° |
| 2026-04-24 13:37 | 55.62746 | 12.64372 | 22 ft | 0 kts | 215° |
| 2026-04-24 13:38 | 55.62738 | 12.64366 | 20 ft | 3 kts | 203° |
| 2026-04-24 13:38 | 55.62712 | 12.64348 | 21 ft | 4 kts | 201° |
| 2026-04-24 13:38 | 55.62685 | 12.64329 | 23 ft | 4 kts | 202° |
| 2026-04-24 13:39 | 55.62658 | 12.64310 | 21 ft | 4 kts | 202° |
| 2026-04-24 13:39 | 55.62632 | 12.64288 | 26 ft | 4 kts | 213° |
| 2026-04-24 13:39 | 55.62608 | 12.64260 | 23 ft | 4 kts | 212° |
| 2026-04-24 13:39 | 55.62583 | 12.64232 | 23 ft | 4 kts | 212° |
| 2026-04-24 13:40 | 55.62557 | 12.64204 | 21 ft | 5 kts | 205° |
| 2026-04-24 13:40 | 55.62526 | 12.64205 | 22 ft | 5 kts | 167° |
| 2026-04-24 13:40 | 55.62530 | 12.64195 | 21 ft | 3 kts | 129° |
| 2026-04-24 13:40 | 55.62541 | 12.64160 | 21 ft | 3 kts | 122° |
| 2026-04-24 13:41 | 55.62545 | 12.64150 | 23 ft | 0 kts | 127° |
| 2026-04-24 13:41 | 55.62544 | 12.64153 | 22 ft | 1 kts | 127° |
| 2026-04-24 13:42 | 55.62529 | 12.64187 | 21 ft | 6 kts | 127° |
| 2026-04-24 13:42 | 55.62492 | 12.64278 | 21 ft | 13 kts | 124° |
| 2026-04-24 13:42 | 55.62426 | 12.64437 | 18 ft | 19 kts | 129° |
| 2026-04-24 13:42 | 55.62350 | 12.64642 | 21 ft | 20 kts | 122° |
| 2026-04-24 13:43 | 55.62317 | 12.64732 | 21 ft | 7 kts | 123° |
| 2026-04-24 13:43 | 55.62291 | 12.64800 | 24 ft | 7 kts | 123° |
| 2026-04-24 13:43 | 55.62260 | 12.64883 | 26 ft | 10 kts | 123° |
| 2026-04-24 13:43 | 55.62214 | 12.65010 | 26 ft | 15 kts | 124° |
| 2026-04-24 13:44 | 55.62128 | 12.65087 | 23 ft | 18 kts | 203° |
| 2026-04-24 13:44 | 55.62002 | 12.64947 | 19 ft | 24 kts | 212° |
| 2026-04-24 13:44 | 55.61850 | 12.64767 | 20 ft | 28 kts | 208° |
| 2026-04-24 13:44 | 55.61682 | 12.64573 | 22 ft | 30 kts | 211° |
| 2026-04-24 13:45 | 55.61503 | 12.64368 | 24 ft | 31 kts | 214° |
| 2026-04-24 13:45 | 55.61314 | 12.64154 | 20 ft | 27 kts | 210° |
| 2026-04-24 13:45 | 55.61169 | 12.63980 | 20 ft | 26 kts | 213° |
| 2026-04-24 13:45 | 55.61011 | 12.63803 | 22 ft | 27 kts | 213° |
| 2026-04-24 13:46 | 55.60846 | 12.63613 | 20 ft | 29 kts | 212° |
| 2026-04-24 13:46 | 55.60667 | 12.63405 | 18 ft | 32 kts | 214° |
| 2026-04-24 13:46 | 55.60507 | 12.63231 | 20 ft | 23 kts | 173° |
| 2026-04-24 13:46 | 55.60415 | 12.63426 | 22 ft | 21 kts | 90° |
| 2026-04-24 13:47 | 55.60504 | 12.63613 | 22 ft | 20 kts | 41° |
| 2026-04-24 13:47 | 55.60717 | 12.63931 | 25 ft | 72 kts | 40° |
| 2026-04-24 13:47 | 55.61246 | 12.64751 | 22 ft | 127 kts | 40° |
| 2026-04-24 13:47 | 55.61745 | 12.65500 | 37 ft | 155 kts | 38° |
| 2026-04-24 13:48 | 55.62515 | 12.66772 | 688 ft | 149 kts | 40° |
| 2026-04-24 13:48 | 55.63267 | 12.68105 | 1329 ft | 158 kts | 37° |
| 2026-04-24 13:48 | 55.64129 | 12.69472 | 1702 ft | 175 kts | 33° |
| 2026-04-24 13:48 | 55.65115 | 12.70911 | 2112 ft | 194 kts | 34° |
| 2026-04-24 13:49 | 55.66218 | 12.72482 | 2594 ft | 213 kts | 34° |
| 2026-04-24 13:49 | 55.67428 | 12.74214 | 3169 ft | 230 kts | 35° |
| 2026-04-24 13:49 | 55.68663 | 12.76027 | 4083 ft | 231 kts | 36° |
| 2026-04-24 13:49 | 55.69805 | 12.78070 | 4939 ft | 242 kts | 52° |
| 2026-04-24 13:50 | 55.70446 | 12.80998 | 5410 ft | 272 kts | 80° |
| 2026-04-24 13:50 | 55.70222 | 12.84397 | 6193 ft | 287 kts | 107° |
| 2026-04-24 13:50 | 55.69176 | 12.87445 | 6646 ft | 295 kts | 134° |
| 2026-04-24 13:50 | 55.67459 | 12.89530 | 6963 ft | 301 kts | 157° |
| 2026-04-24 13:51 | 55.65468 | 12.90692 | 7348 ft | 303 kts | 166° |
| 2026-04-24 13:51 | 55.63422 | 12.91630 | 8281 ft | 302 kts | 167° |
| 2026-04-24 13:51 | 55.61350 | 12.92096 | 9198 ft | 302 kts | 189° |
| 2026-04-24 13:51 | 55.59372 | 12.91060 | 10073 ft | 295 kts | 215° |
| 2026-04-24 13:52 | 55.57776 | 12.88762 | 10617 ft | 305 kts | 230° |
| 2026-04-24 13:52 | 55.56282 | 12.85918 | 10894 ft | 325 kts | 237° |
| 2026-04-24 13:52 | 55.55172 | 12.82392 | 11371 ft | 333 kts | 249° |
| 2026-04-24 13:52 | 55.54189 | 12.78674 | 12187 ft | 335 kts | 250° |
| 2026-04-24 13:53 | 55.53211 | 12.74914 | 12992 ft | 339 kts | 250° |
| 2026-04-24 13:53 | 55.52229 | 12.71097 | 13800 ft | 343 kts | 250° |
| 2026-04-24 13:53 | 55.51244 | 12.67250 | 14514 ft | 346 kts | 250° |
| 2026-04-24 13:53 | 55.50251 | 12.63369 | 15253 ft | 348 kts | 250° |
| 2026-04-24 13:54 | 55.49250 | 12.59457 | 15976 ft | 351 kts | 250° |
| 2026-04-24 13:54 | 55.48241 | 12.55522 | 16684 ft | 354 kts | 250° |
| 2026-04-24 13:54 | 55.47221 | 12.51551 | 17375 ft | 357 kts | 250° |
| 2026-04-24 13:54 | 55.46192 | 12.47553 | 18081 ft | 360 kts | 250° |
| 2026-04-24 13:55 | 55.45153 | 12.43524 | 18709 ft | 363 kts | 250° |
| 2026-04-24 13:55 | 55.44105 | 12.39470 | 19331 ft | 365 kts | 250° |
| 2026-04-24 13:55 | 55.43046 | 12.35382 | 19940 ft | 368 kts | 250° |
| 2026-04-24 13:55 | 55.41980 | 12.31269 | 20541 ft | 371 kts | 250° |
| 2026-04-24 13:56 | 55.40902 | 12.27122 | 21135 ft | 374 kts | 250° |
| 2026-04-24 13:56 | 55.39815 | 12.22947 | 21745 ft | 376 kts | 250° |
| 2026-04-24 13:56 | 55.38734 | 12.18799 | 22316 ft | 379 kts | 250° |
| 2026-04-24 13:56 | 55.37628 | 12.14561 | 22902 ft | 382 kts | 250° |
| 2026-04-24 13:57 | 55.36512 | 12.10298 | 23474 ft | 385 kts | 250° |
| 2026-04-24 13:57 | 55.35388 | 12.06007 | 23985 ft | 388 kts | 250° |
| 2026-04-24 13:57 | 55.34256 | 12.01699 | 24475 ft | 390 kts | 250° |
| 2026-04-24 13:57 | 55.33116 | 11.97363 | 24956 ft | 392 kts | 250° |
| 2026-04-24 13:58 | 55.31969 | 11.93009 | 25430 ft | 394 kts | 250° |
| 2026-04-24 13:58 | 55.30813 | 11.88631 | 25894 ft | 396 kts | 250° |
| 2026-04-24 13:58 | 55.29650 | 11.84236 | 26346 ft | 398 kts | 250° |
| 2026-04-24 13:58 | 55.28478 | 11.79812 | 26791 ft | 400 kts | 250° |
| 2026-04-24 13:59 | 55.27300 | 11.75377 | 27218 ft | 403 kts | 250° |
| 2026-04-24 13:59 | 55.26111 | 11.70910 | 27664 ft | 405 kts | 250° |
| 2026-04-24 13:59 | 55.24810 | 11.66505 | 28080 ft | 410 kts | 244° |
| 2026-04-24 13:59 | 55.23272 | 11.62269 | 28471 ft | 413 kts | 242° |
| 2026-04-24 14:00 | 55.21700 | 11.58040 | 28857 ft | 415 kts | 242° |
| 2026-04-24 14:00 | 55.20125 | 11.53785 | 29255 ft | 417 kts | 242° |
| 2026-04-24 14:00 | 55.18546 | 11.49519 | 29615 ft | 419 kts | 242° |
| 2026-04-24 14:00 | 55.16959 | 11.45236 | 29970 ft | 421 kts | 242° |
| 2026-04-24 14:01 | 55.15359 | 11.40928 | 30296 ft | 423 kts | 242° |
| 2026-04-24 14:01 | 55.13755 | 11.36618 | 30604 ft | 424 kts | 242° |
| 2026-04-24 14:01 | 55.12140 | 11.32286 | 30918 ft | 426 kts | 242° |
| 2026-04-24 14:01 | 55.10518 | 11.27943 | 31224 ft | 427 kts | 242° |
| 2026-04-24 14:02 | 55.08892 | 11.23599 | 31618 ft | 427 kts | 242° |
| 2026-04-24 14:02 | 55.07268 | 11.19271 | 32034 ft | 425 kts | 242° |
| 2026-04-24 14:02 | 55.05649 | 11.14963 | 32436 ft | 424 kts | 242° |
| 2026-04-24 14:02 | 55.04032 | 11.10665 | 32829 ft | 423 kts | 242° |
| 2026-04-24 14:03 | 55.02420 | 11.06388 | 33225 ft | 422 kts | 242° |
| 2026-04-24 14:03 | 55.00810 | 11.02123 | 33607 ft | 421 kts | 242° |
| 2026-04-24 14:03 | 54.99206 | 10.97879 | 33950 ft | 420 kts | 242° |
| 2026-04-24 14:03 | 54.97600 | 10.93640 | 34280 ft | 418 kts | 242° |
| 2026-04-24 14:04 | 54.96000 | 10.89422 | 34576 ft | 417 kts | 241° |
| 2026-04-24 14:04 | 54.94379 | 10.85228 | 34849 ft | 418 kts | 239° |
| 2026-04-24 14:04 | 54.92620 | 10.81195 | 35130 ft | 419 kts | 237° |
| 2026-04-24 14:04 | 54.90852 | 10.77171 | 35384 ft | 418 kts | 238° |
| 2026-04-24 14:05 | 54.89091 | 10.73153 | 35654 ft | 418 kts | 237° |
| 2026-04-24 14:05 | 54.87331 | 10.69144 | 35905 ft | 417 kts | 237° |
| 2026-04-24 14:05 | 54.85571 | 10.65141 | 36152 ft | 417 kts | 237° |
| 2026-04-24 14:05 | 54.83815 | 10.61148 | 36395 ft | 415 kts | 238° |
| 2026-04-24 14:06 | 54.82217 | 10.57008 | 36628 ft | 412 kts | 243° |
| 2026-04-24 14:06 | 54.80712 | 10.52785 | 36842 ft | 411 kts | 242° |
| 2026-04-24 14:06 | 54.79205 | 10.48569 | 37067 ft | 411 kts | 242° |
| 2026-04-24 14:06 | 54.77698 | 10.44367 | 37290 ft | 410 kts | 242° |
| 2026-04-24 14:07 | 54.76190 | 10.40180 | 37486 ft | 410 kts | 242° |
| 2026-04-24 14:07 | 54.74679 | 10.35993 | 37674 ft | 410 kts | 242° |
| 2026-04-24 14:07 | 54.73169 | 10.31816 | 37881 ft | 409 kts | 242° |
| 2026-04-24 14:07 | 54.71657 | 10.27643 | 38063 ft | 409 kts | 242° |
| 2026-04-24 14:08 | 54.68498 | 10.19535 | 38103 ft | 409 kts | 239° |
| 2026-04-24 14:08 | 54.65211 | 10.11508 | 38107 ft | 409 kts | 239° |
| 2026-04-24 14:09 | 54.61951 | 10.03460 | 38113 ft | 409 kts | 239° |
| 2026-04-24 14:09 | 54.58697 | 9.95409 | 38120 ft | 409 kts | 239° |
| 2026-04-24 14:10 | 54.55436 | 9.87366 | 38132 ft | 409 kts | 239° |
| 2026-04-24 14:10 | 54.52170 | 9.79339 | 38141 ft | 409 kts | 239° |
| 2026-04-24 14:11 | 54.48900 | 9.71330 | 38147 ft | 409 kts | 238° |
| 2026-04-24 14:12 | 54.43979 | 9.59324 | 38148 ft | 409 kts | 238° |
| 2026-04-24 14:12 | 54.40693 | 9.51339 | 38150 ft | 409 kts | 238° |
| 2026-04-24 14:13 | 54.37399 | 9.43362 | 38150 ft | 410 kts | 238° |
| 2026-04-24 14:13 | 54.34100 | 9.35397 | 38146 ft | 410 kts | 238° |
| 2026-04-24 14:14 | 54.30795 | 9.27442 | 38149 ft | 410 kts | 238° |
| 2026-04-24 14:14 | 54.25819 | 9.15514 | 38152 ft | 411 kts | 238° |
| 2026-04-24 14:15 | 54.22514 | 9.07624 | 38163 ft | 411 kts | 237° |
| 2026-04-24 14:15 | 54.19177 | 8.99680 | 38175 ft | 412 kts | 237° |
| 2026-04-24 14:16 | 54.15831 | 8.91742 | 38185 ft | 412 kts | 237° |
| 2026-04-24 14:17 | 54.10799 | 8.79853 | 38180 ft | 412 kts | 237° |
| 2026-04-24 14:17 | 54.05753 | 8.67986 | 38202 ft | 412 kts | 237° |
| 2026-04-24 14:18 | 54.02383 | 8.60089 | 38204 ft | 413 kts | 237° |
| 2026-04-24 14:18 | 53.99005 | 8.52203 | 38190 ft | 413 kts | 237° |
| 2026-04-24 14:19 | 53.95624 | 8.44332 | 38198 ft | 412 kts | 236° |
| 2026-04-24 14:19 | 53.92239 | 8.36477 | 38216 ft | 412 kts | 236° |
| 2026-04-24 14:20 | 53.88851 | 8.28640 | 38215 ft | 412 kts | 236° |
| 2026-04-24 14:20 | 53.85459 | 8.20818 | 38218 ft | 411 kts | 236° |
| 2026-04-24 14:21 | 53.82069 | 8.13025 | 38216 ft | 411 kts | 236° |
| 2026-04-24 14:21 | 53.78678 | 8.05253 | 38221 ft | 410 kts | 236° |
| 2026-04-24 14:22 | 53.75284 | 7.97499 | 38233 ft | 410 kts | 236° |
| 2026-04-24 14:23 | 53.70195 | 7.85916 | 38240 ft | 409 kts | 236° |
| 2026-04-24 14:23 | 53.66800 | 7.78219 | 38234 ft | 408 kts | 236° |
| 2026-04-24 14:24 | 53.63405 | 7.70547 | 38236 ft | 408 kts | 236° |
| 2026-04-24 14:24 | 53.60010 | 7.62897 | 38237 ft | 407 kts | 236° |
| 2026-04-24 14:25 | 53.57189 | 7.56558 | 38237 ft | 407 kts | 236° |
| 2026-04-24 14:25 | 53.53219 | 7.47664 | 38237 ft | 406 kts | 236° |
| 2026-04-24 14:26 | 53.49823 | 7.40080 | 38258 ft | 406 kts | 235° |
| 2026-04-24 14:26 | 53.46425 | 7.32514 | 38259 ft | 406 kts | 235° |
| 2026-04-24 14:27 | 53.43048 | 7.25020 | 38257 ft | 405 kts | 235° |
| 2026-04-24 14:27 | 53.39647 | 7.17494 | 38258 ft | 405 kts | 235° |
| 2026-04-24 14:28 | 53.36220 | 7.09931 | 38258 ft | 405 kts | 235° |
| 2026-04-24 14:28 | 53.32838 | 7.02492 | 38257 ft | 405 kts | 235° |
| 2026-04-24 14:29 | 53.29424 | 6.95005 | 38257 ft | 404 kts | 235° |
| 2026-04-24 14:29 | 53.26007 | 6.87535 | 38258 ft | 404 kts | 235° |
| 2026-04-24 14:30 | 53.23144 | 6.81290 | 38261 ft | 404 kts | 235° |
| 2026-04-24 14:30 | 53.19165 | 6.72630 | 38262 ft | 404 kts | 235° |
| 2026-04-24 14:31 | 53.15746 | 6.65182 | 38262 ft | 404 kts | 237° |
| 2026-04-24 14:31 | 53.12704 | 6.57339 | 38266 ft | 403 kts | 240° |
| 2026-04-24 14:32 | 53.09758 | 6.49404 | 38265 ft | 403 kts | 240° |
| 2026-04-24 14:32 | 53.06755 | 6.41524 | 38268 ft | 403 kts | 239° |
| 2026-04-24 14:33 | 53.04239 | 6.35003 | 38269 ft | 403 kts | 239° |
| 2026-04-24 14:33 | 53.01181 | 6.27115 | 38269 ft | 403 kts | 239° |
| 2026-04-24 14:34 | 52.98139 | 6.19289 | 38271 ft | 403 kts | 239° |
| 2026-04-24 14:34 | 52.95090 | 6.11471 | 38272 ft | 404 kts | 239° |
| 2026-04-24 14:35 | 52.92058 | 6.03717 | 38277 ft | 404 kts | 239° |
| 2026-04-24 14:35 | 52.88999 | 5.95921 | 38276 ft | 403 kts | 239° |
| 2026-04-24 14:36 | 52.85934 | 5.88132 | 38277 ft | 403 kts | 239° |
| 2026-04-24 14:36 | 52.82868 | 5.80364 | 38281 ft | 403 kts | 239° |
| 2026-04-24 14:37 | 52.79795 | 5.72602 | 38286 ft | 403 kts | 239° |
| 2026-04-24 14:37 | 52.76718 | 5.64853 | 38284 ft | 404 kts | 239° |
| 2026-04-24 14:38 | 52.73634 | 5.57111 | 38286 ft | 404 kts | 239° |
| 2026-04-24 14:38 | 52.70546 | 5.49383 | 38285 ft | 404 kts | 239° |
| 2026-04-24 14:39 | 52.67449 | 5.41657 | 38289 ft | 404 kts | 238° |
| 2026-04-24 14:39 | 52.64317 | 5.33863 | 38290 ft | 412 kts | 238° |
| 2026-04-24 14:40 | 52.61121 | 5.25936 | 38289 ft | 419 kts | 238° |
| 2026-04-24 14:40 | 52.57870 | 5.17899 | 38293 ft | 424 kts | 238° |
| 2026-04-24 14:41 | 52.54580 | 5.09795 | 38287 ft | 428 kts | 238° |
| 2026-04-24 14:41 | 52.51266 | 5.01653 | 38290 ft | 430 kts | 238° |
| 2026-04-24 14:42 | 52.47930 | 4.93487 | 38290 ft | 432 kts | 238° |
| 2026-04-24 14:42 | 52.44574 | 4.85295 | 38293 ft | 433 kts | 238° |
| 2026-04-24 14:43 | 52.41207 | 4.77103 | 38292 ft | 434 kts | 238° |
| 2026-04-24 14:43 | 52.37828 | 4.68909 | 38294 ft | 434 kts | 238° |
| 2026-04-24 14:44 | 52.34439 | 4.60716 | 38291 ft | 435 kts | 238° |
| 2026-04-24 14:44 | 52.31040 | 4.52526 | 38292 ft | 435 kts | 238° |
| 2026-04-24 14:44 | 52.29361 | 4.48492 | 38288 ft | 421 kts | 237° |
| 2026-04-24 14:45 | 52.27742 | 4.44615 | 38289 ft | 405 kts | 238° |
| 2026-04-24 14:45 | 52.24615 | 4.37125 | 38293 ft | 401 kts | 238° |
| 2026-04-24 14:46 | 52.21459 | 4.29580 | 38294 ft | 408 kts | 237° |
| 2026-04-24 14:46 | 52.18255 | 4.21953 | 38295 ft | 407 kts | 237° |
| 2026-04-24 14:47 | 52.15053 | 4.14352 | 38295 ft | 407 kts | 237° |
| 2026-04-24 14:47 | 52.11842 | 4.06753 | 38295 ft | 407 kts | 237° |
| 2026-04-24 14:48 | 52.08626 | 3.99164 | 38303 ft | 408 kts | 237° |
| 2026-04-24 14:48 | 52.05401 | 3.91578 | 38305 ft | 408 kts | 237° |
| 2026-04-24 14:49 | 52.02172 | 3.84004 | 38304 ft | 408 kts | 237° |
| 2026-04-24 14:49 | 51.98935 | 3.76433 | 38307 ft | 408 kts | 237° |
| 2026-04-24 14:50 | 51.95690 | 3.68865 | 38305 ft | 409 kts | 237° |
| 2026-04-24 14:50 | 51.92439 | 3.61307 | 38311 ft | 409 kts | 237° |
| 2026-04-24 14:51 | 51.89180 | 3.53750 | 38313 ft | 409 kts | 236° |
| 2026-04-24 14:51 | 51.85915 | 3.46203 | 38314 ft | 409 kts | 236° |
| 2026-04-24 14:52 | 51.82651 | 3.38681 | 38318 ft | 410 kts | 236° |
| 2026-04-24 14:52 | 51.79366 | 3.31132 | 38320 ft | 410 kts | 236° |
| 2026-04-24 14:53 | 51.76091 | 3.23622 | 38019 ft | 409 kts | 236° |
| 2026-04-24 14:53 | 51.74582 | 3.19733 | 37527 ft | 409 kts | 244° |
| 2026-04-24 14:53 | 51.73462 | 3.15516 | 37022 ft | 409 kts | 252° |
| 2026-04-24 14:53 | 51.72749 | 3.11084 | 36522 ft | 409 kts | 259° |
| 2026-04-24 14:54 | 51.72347 | 3.06538 | 36043 ft | 410 kts | 261° |
| 2026-04-24 14:54 | 51.71966 | 3.01982 | 35563 ft | 411 kts | 261° |
| 2026-04-24 14:54 | 51.71581 | 2.97479 | 35109 ft | 411 kts | 261° |
| 2026-04-24 14:54 | 51.71185 | 2.92911 | 34651 ft | 412 kts | 261° |
| 2026-04-24 14:55 | 51.70915 | 2.89817 | 34345 ft | 412 kts | 261° |
| 2026-04-24 14:55 | 51.70382 | 2.83757 | 33664 ft | 413 kts | 261° |
| 2026-04-24 14:55 | 51.69975 | 2.79154 | 33110 ft | 415 kts | 261° |
| 2026-04-24 14:55 | 51.69566 | 2.74541 | 32537 ft | 417 kts | 261° |
| 2026-04-24 14:56 | 51.69152 | 2.69903 | 31977 ft | 418 kts | 261° |
| 2026-04-24 14:56 | 51.68736 | 2.65257 | 31422 ft | 419 kts | 261° |
| 2026-04-24 14:56 | 51.68318 | 2.60601 | 30884 ft | 421 kts | 261° |
| 2026-04-24 14:56 | 51.67899 | 2.55934 | 30347 ft | 420 kts | 261° |
| 2026-04-24 14:57 | 51.67483 | 2.51309 | 29722 ft | 416 kts | 261° |
| 2026-04-24 14:57 | 51.67067 | 2.46719 | 29115 ft | 411 kts | 261° |
| 2026-04-24 14:57 | 51.66655 | 2.42202 | 28525 ft | 406 kts | 261° |
| 2026-04-24 14:57 | 51.66244 | 2.37727 | 27906 ft | 402 kts | 261° |
| 2026-04-24 14:58 | 51.65834 | 2.33283 | 27255 ft | 400 kts | 261° |
| 2026-04-24 14:58 | 51.65425 | 2.28866 | 26628 ft | 398 kts | 261° |
| 2026-04-24 14:58 | 51.65017 | 2.24479 | 26008 ft | 395 kts | 261° |
| 2026-04-24 14:58 | 51.64610 | 2.20119 | 25407 ft | 392 kts | 260° |
| 2026-04-24 14:59 | 51.64205 | 2.15791 | 24804 ft | 390 kts | 260° |
| 2026-04-24 14:59 | 51.63800 | 2.11487 | 24229 ft | 387 kts | 260° |
| 2026-04-24 14:59 | 51.63399 | 2.07211 | 23611 ft | 385 kts | 260° |
| 2026-04-24 14:59 | 51.63003 | 2.02959 | 22906 ft | 383 kts | 260° |
| 2026-04-24 15:00 | 51.62610 | 1.98723 | 22207 ft | 382 kts | 261° |
| 2026-04-24 15:00 | 51.62217 | 1.94507 | 21532 ft | 380 kts | 261° |
| 2026-04-24 15:00 | 51.61828 | 1.90311 | 20874 ft | 379 kts | 261° |
| 2026-04-24 15:00 | 51.61274 | 1.86182 | 20225 ft | 377 kts | 251° |
| 2026-04-24 15:01 | 51.60219 | 1.82341 | 19598 ft | 376 kts | 240° |
| 2026-04-24 15:01 | 51.58703 | 1.78938 | 18977 ft | 375 kts | 229° |
| 2026-04-24 15:01 | 51.56994 | 1.75858 | 18346 ft | 374 kts | 229° |
| 2026-04-24 15:01 | 51.55269 | 1.72740 | 17659 ft | 373 kts | 229° |
| 2026-04-24 15:02 | 51.53553 | 1.69631 | 17129 ft | 368 kts | 229° |
| 2026-04-24 15:02 | 51.51880 | 1.66601 | 16740 ft | 359 kts | 229° |
| 2026-04-24 15:02 | 51.50248 | 1.63611 | 16399 ft | 351 kts | 231° |
| 2026-04-24 15:02 | 51.48858 | 1.60463 | 16316 ft | 347 kts | 239° |
| 2026-04-24 15:03 | 51.48063 | 1.58145 | 16313 ft | 357 kts | 244° |
| 2026-04-24 15:03 | 51.46755 | 1.53386 | 16307 ft | 365 kts | 246° |
| 2026-04-24 15:03 | 51.45750 | 1.49685 | 16260 ft | 359 kts | 246° |
| 2026-04-24 15:03 | 51.44755 | 1.46041 | 16057 ft | 355 kts | 246° |
| 2026-04-24 15:04 | 51.43764 | 1.42421 | 15836 ft | 356 kts | 246° |
| 2026-04-24 15:04 | 51.42762 | 1.38774 | 15613 ft | 358 kts | 246° |
| 2026-04-24 15:04 | 51.41756 | 1.35119 | 15398 ft | 358 kts | 246° |
| 2026-04-24 15:04 | 51.40755 | 1.31485 | 15185 ft | 356 kts | 246° |
| 2026-04-24 15:05 | 51.39755 | 1.27861 | 14959 ft | 355 kts | 246° |
| 2026-04-24 15:05 | 51.38754 | 1.24241 | 14744 ft | 356 kts | 246° |
| 2026-04-24 15:05 | 51.37752 | 1.20620 | 14530 ft | 355 kts | 246° |
| 2026-04-24 15:05 | 51.36749 | 1.17005 | 14318 ft | 355 kts | 246° |
| 2026-04-24 15:06 | 51.35748 | 1.13397 | 14101 ft | 355 kts | 246° |
| 2026-04-24 15:06 | 51.34746 | 1.09795 | 13856 ft | 354 kts | 246° |
| 2026-04-24 15:06 | 51.33747 | 1.06206 | 13588 ft | 352 kts | 245° |
| 2026-04-24 15:06 | 51.32751 | 1.02637 | 13347 ft | 351 kts | 245° |
| 2026-04-24 15:07 | 51.31757 | 0.99080 | 13082 ft | 349 kts | 245° |
| 2026-04-24 15:07 | 51.30768 | 0.95542 | 12815 ft | 348 kts | 245° |
| 2026-04-24 15:07 | 51.29780 | 0.92012 | 12557 ft | 347 kts | 245° |
| 2026-04-24 15:07 | 51.28796 | 0.88504 | 12304 ft | 346 kts | 245° |
| 2026-04-24 15:08 | 51.27812 | 0.85004 | 12049 ft | 345 kts | 245° |
| 2026-04-24 15:08 | 51.26829 | 0.81513 | 11792 ft | 344 kts | 245° |
| 2026-04-24 15:08 | 51.25851 | 0.78041 | 11550 ft | 342 kts | 245° |
| 2026-04-24 15:08 | 51.24887 | 0.74630 | 11308 ft | 333 kts | 245° |
| 2026-04-24 15:09 | 51.23948 | 0.71303 | 11059 ft | 324 kts | 245° |
| 2026-04-24 15:09 | 51.23033 | 0.68070 | 10816 ft | 316 kts | 245° |
| 2026-04-24 15:09 | 51.22140 | 0.64915 | 10574 ft | 308 kts | 245° |
| 2026-04-24 15:09 | 51.21268 | 0.61838 | 10332 ft | 301 kts | 244° |
| 2026-04-24 15:10 | 51.20412 | 0.58828 | 10088 ft | 294 kts | 244° |
| 2026-04-24 15:10 | 51.19382 | 0.56075 | 9685 ft | 288 kts | 225° |
| 2026-04-24 15:10 | 51.17860 | 0.54042 | 9170 ft | 285 kts | 216° |
| 2026-04-24 15:10 | 51.16270 | 0.52160 | 8678 ft | 284 kts | 215° |
| 2026-04-24 15:11 | 51.14683 | 0.50297 | 8219 ft | 282 kts | 215° |
| 2026-04-24 15:11 | 51.13109 | 0.48436 | 7758 ft | 281 kts | 215° |
| 2026-04-24 15:11 | 51.11559 | 0.46586 | 7414 ft | 276 kts | 215° |
| 2026-04-24 15:11 | 51.10024 | 0.44744 | 7316 ft | 279 kts | 215° |
| 2026-04-24 15:12 | 51.08473 | 0.42875 | 7291 ft | 279 kts | 215° |
| 2026-04-24 15:12 | 51.05899 | 0.38403 | 7275 ft | 284 kts | 250° |
| 2026-04-24 15:12 | 51.05507 | 0.35288 | 7190 ft | 284 kts | 261° |
| 2026-04-24 15:13 | 51.05237 | 0.32228 | 6920 ft | 282 kts | 261° |
| 2026-04-24 15:13 | 51.04964 | 0.29140 | 6561 ft | 283 kts | 261° |
| 2026-04-24 15:13 | 51.04693 | 0.26053 | 6184 ft | 282 kts | 261° |
| 2026-04-24 15:13 | 51.04414 | 0.22967 | 5770 ft | 283 kts | 261° |
| 2026-04-24 15:14 | 51.04127 | 0.19869 | 5421 ft | 282 kts | 261° |
| 2026-04-24 15:14 | 51.03837 | 0.16788 | 5086 ft | 282 kts | 261° |
| 2026-04-24 15:14 | 51.03543 | 0.13721 | 4776 ft | 278 kts | 261° |
| 2026-04-24 15:14 | 51.03254 | 0.10746 | 4682 ft | 267 kts | 261° |
| 2026-04-24 15:15 | 51.02979 | 0.07887 | 4553 ft | 257 kts | 261° |
| 2026-04-24 15:15 | 51.02713 | 0.05140 | 4439 ft | 248 kts | 261° |
| 2026-04-24 15:15 | 51.02450 | 0.02438 | 4140 ft | 247 kts | 261° |
| 2026-04-24 15:15 | 51.02186 | -0.00261 | 3872 ft | 247 kts | 261° |
| 2026-04-24 15:16 | 51.01920 | -0.02960 | 3618 ft | 248 kts | 261° |
| 2026-04-24 15:16 | 51.01653 | -0.05649 | 3422 ft | 246 kts | 261° |
| 2026-04-24 15:16 | 51.01387 | -0.08315 | 3269 ft | 245 kts | 261° |
| 2026-04-24 15:16 | 51.01127 | -0.10985 | 3075 ft | 244 kts | 261° |
| 2026-04-24 15:17 | 51.00871 | -0.13609 | 2995 ft | 235 kts | 261° |
| 2026-04-24 15:17 | 51.00626 | -0.16172 | 2989 ft | 237 kts | 261° |
| 2026-04-24 15:17 | 51.00358 | -0.18841 | 2998 ft | 250 kts | 261° |
| 2026-04-24 15:17 | 51.00082 | -0.21607 | 2990 ft | 253 kts | 261° |
| 2026-04-24 15:18 | 50.99811 | -0.24308 | 2998 ft | 245 kts | 261° |
| 2026-04-24 15:18 | 50.99550 | -0.26954 | 2997 ft | 242 kts | 261° |
| 2026-04-24 15:18 | 50.99291 | -0.29596 | 3005 ft | 244 kts | 261° |
| 2026-04-24 15:18 | 50.99220 | -0.32309 | 2997 ft | 249 kts | 284° |
| 2026-04-24 15:19 | 50.99804 | -0.34847 | 2991 ft | 242 kts | 296° |
| 2026-04-24 15:19 | 51.00259 | -0.36459 | 2994 ft | 241 kts | 296° |
| 2026-04-24 15:19 | 51.00952 | -0.38896 | 2990 ft | 241 kts | 296° |
| 2026-04-24 15:19 | 51.01882 | -0.42160 | 2995 ft | 251 kts | 296° |
| 2026-04-24 15:20 | 51.02371 | -0.43858 | 2992 ft | 248 kts | 296° |
| 2026-04-24 15:20 | 51.03541 | -0.46839 | 2995 ft | 236 kts | 323° |
| 2026-04-24 15:20 | 51.04484 | -0.47709 | 3005 ft | 232 kts | 345° |
| 2026-04-24 15:20 | 51.06053 | -0.48348 | 2998 ft | 235 kts | 351° |
| 2026-04-24 15:21 | 51.07648 | -0.48643 | 2978 ft | 228 kts | 12° |
| 2026-04-24 15:21 | 51.09086 | -0.47734 | 2993 ft | 223 kts | 36° |
| 2026-04-24 15:21 | 51.10300 | -0.46315 | 2998 ft | 208 kts | 48° |
| 2026-04-24 15:21 | 51.11083 | -0.44537 | 2995 ft | 193 kts | 67° |
| 2026-04-24 15:22 | 51.11530 | -0.42546 | 2988 ft | 185 kts | 76° |
| 2026-04-24 15:22 | 51.11830 | -0.40552 | 2790 ft | 186 kts | 78° |
| 2026-04-24 15:22 | 51.12111 | -0.38591 | 2577 ft | 184 kts | 78° |
| 2026-04-24 15:23 | 51.12662 | -0.34623 | 2012 ft | 179 kts | 78° |
| 2026-04-24 15:23 | 51.13182 | -0.30964 | 1558 ft | 159 kts | 77° |
| 2026-04-24 15:23 | 51.13414 | -0.29359 | 1384 ft | 141 kts | 78° |
| 2026-04-24 15:24 | 51.13991 | -0.25217 | 806 ft | 122 kts | 77° |
| 2026-04-24 15:25 | 51.14318 | -0.22622 | 475 ft | 122 kts | 75° |
| 2026-04-24 15:25 | 51.14682 | -0.20015 | 212 ft | 114 kts | 77° |
| 2026-04-24 15:26 | 51.15026 | -0.18342 | 212 ft | 17 kts | 50° |
| 2026-04-24 15:27 | 51.15155 | -0.17882 | 206 ft | 16 kts | 79° |
| 2026-04-24 15:27 | 51.15237 | -0.17791 | 204 ft | 0 kts | 355° |
| 2026-04-24 15:28 | 51.15309 | -0.18117 | 211 ft | 12 kts | 345° |
| 2026-04-24 15:29 | 51.15511 | -0.18198 | 207 ft | 18 kts | 345° |
| 2026-04-24 15:30 | 51.15687 | -0.18046 | 205 ft | 13 kts | 78° |
| 2026-04-24 15:31 | 51.15683 | -0.17614 | 208 ft | 10 kts | 165° |